Weather at Volk Airport

Public forecast

Using degrees Celsius for public forecast. Weather courtesy of forecast.io.

Closest aviation weather report (METAR) to Volk Airport

Closest report is CFB Borden, 17.7 nm (32.7 km) NNW. Retrieved 2021/02/27 03:00 UTC (2 minutes ago):

CYBN 270300Z AUTO 17004KT 9SM CLR M05/M06 A3014 RMK SLP218

Closest aviation forecast (TAF) to Volk Airport

Forecast is more than 6 hours old.

Closest forecast is CFB Borden, 17.7 nm (32.7 km) NNW. Retrieved 2021/02/26 18:33 UTC (8 hours ago):

TAF TAF CYBN 261730Z 2618/2706 19012KT P6SM SKC FM270500 16008KT P6SM BKN130 RMK FCST BASED ON AUTO OBS NXT FCST BY 270000Z